Time;durP1;ratioP1;P1;durP2;ratioP2;P2;SDS_P1;SDS_P2;PMS_P1;PMS_P2;Temp;Humidity;BMP_temperature;BMP_pressure;BME280_temperature;BME280_humidity;BME280_pressure;Samples;Min_cycle;Max_cycle;Signal;HPM_P1;HPM_P2
2022/08/12 00:43:57;;;;;;;;;;;24.90;70.40;;;;;;5114485;28;19915;-74
2022/08/12 00:46:35;;;;;;;;;;;25.00;70.40;;;;;;5114251;28;19970;-74
2022/08/12 00:49:01;;;;;;;;;;;24.90;70.50;;;;;;5114048;28;20319;-73
2022/08/12 00:52:04;;;;;;;;;;;24.90;70.50;;;;;;5114037;28;19965;-73
2022/08/12 00:54:13;;;;;;;;;;;24.90;70.50;;;;;;5114063;28;20429;-74
2022/08/12 00:56:40;;;;;;;;;;;24.80;71.60;;;;;;5114228;28;19962;-74
2022/08/12 00:59:06;;;;;;;;;;;24.80;71.00;;;;;;5114387;28;19912;-74
2022/08/12 01:01:32;;;;;;;;;;;24.70;70.80;;;;;;5112488;28;20045;-74
2022/08/12 01:12:11;;;;;;;;;;;24.50;71.30;;;;;;5118058;28;19965;-74
2022/08/12 01:14:37;;;;;;;;;;;24.50;71.70;;;;;;5116305;28;19911;-78
2022/08/12 01:17:03;;;;;;;;;;;24.60;71.40;;;;;;5117424;28;19922;-73
2022/08/12 01:19:30;;;;;;;;;;;24.60;71.40;;;;;;5117711;28;20002;-74
2022/08/12 01:22:08;;;;;;;;;;;24.60;71.60;;;;;;5116629;28;19908;-74
2022/08/12 01:24:45;;;;;;;;;;;24.70;71.10;;;;;;5117548;28;19911;-74
2022/08/12 01:27:13;;;;;;;;;;;24.70;71.50;;;;;;5117551;28;20328;-75
2022/08/12 01:29:42;;;;;;;;;;;24.70;71.10;;;;;;5116260;28;19916;-74
2022/08/12 01:32:09;;;;;;;;;;;24.70;71.40;;;;;;5116142;28;19981;-74
2022/08/12 01:34:37;;;;;;;;;;;24.70;70.80;;;;;;5117444;28;19908;-74
2022/08/12 01:37:03;;;;;;;;;;;24.70;70.90;;;;;;5115953;28;20303;-74
2022/08/12 01:39:36;;;;;;;;;;;24.70;70.60;;;;;;5116054;28;19907;-74
2022/08/12 01:42:03;;;;;;;;;;;24.70;71.10;;;;;;5116921;28;19908;-74
2022/08/12 01:44:30;;;;;;;;;;;24.70;70.90;;;;;;5116401;28;19994;-74
2022/08/12 01:47:05;;;;;;;;;;;24.70;71.00;;;;;;5117244;28;19914;-74
2022/08/12 01:49:52;;;;;;;;;;;24.70;71.60;;;;;;5116745;28;19912;-74
2022/08/12 01:52:33;;;;;;;;;;;24.70;70.80;;;;;;5115838;28;19978;-77
2022/08/12 01:54:59;;;;;;;;;;;24.70;70.90;;;;;;5117354;28;20002;-74
2022/08/12 01:57:27;;;;;;;;;;;24.70;71.00;;;;;;5117256;28;19908;-75
2022/08/12 01:59:58;;;;;;;;;;;24.60;70.80;;;;;;5117107;28;19912;-74
2022/08/12 02:02:31;;;;;;;;;;;24.50;71.00;;;;;;5116936;28;19907;-74
2022/08/12 02:13:26;;;;;;;;;;;24.50;71.50;;;;;;5116972;28;19957;-74
2022/08/12 02:15:52;;;;;;;;;;;24.50;71.20;;;;;;5116573;28;19908;-74
2022/08/12 02:18:22;;;;;;;;;;;24.50;71.20;;;;;;5115534;28;20254;-74
2022/08/12 02:20:48;;;;;;;;;;;24.40;71.10;;;;;;5115439;28;19908;-74
2022/08/12 02:23:14;;;;;;;;;;;24.50;71.30;;;;;;5115655;28;20429;-75
2022/08/12 02:25:42;;;;;;;;;;;24.50;71.20;;;;;;5116370;28;19999;-74
2022/08/12 02:28:08;;;;;;;;;;;24.50;71.30;;;;;;5116360;28;19919;-74
2022/08/12 02:30:35;;;;;;;;;;;24.60;71.10;;;;;;5116285;28;19912;-74
2022/08/12 02:33:03;;;;;;;;;;;24.50;70.90;;;;;;5116057;28;19970;-74
2022/08/12 02:35:30;;;;;;;;;;;24.60;71.10;;;;;;5115945;28;19911;-75
2022/08/12 02:37:57;;;;;;;;;;;24.60;71.00;;;;;;5115923;28;19943;-71
2022/08/12 02:40:23;;;;;;;;;;;24.50;71.00;;;;;;5114490;28;20008;-74
2022/08/12 02:42:54;;;;;;;;;;;24.60;71.10;;;;;;5115866;28;20346;-74
2022/08/12 02:45:32;;;;;;;;;;;24.60;71.00;;;;;;5115868;28;19908;-74
2022/08/12 02:48:00;;;;;;;;;;;24.60;71.00;;;;;;5116180;28;19912;-75
2022/08/12 02:50:27;;;;;;;;;;;24.60;70.70;;;;;;5114658;28;20006;-74
2022/08/12 02:52:54;;;;;;;;;;;24.60;70.90;;;;;;5115765;28;19912;-74
2022/08/12 02:55:21;;;;;;;;;;;24.60;71.00;;;;;;5115646;28;19915;-74
2022/08/12 02:57:49;;;;;;;;;;;24.60;71.40;;;;;;5116212;28;19915;-74
2022/08/12 03:00:17;;;;;;;;;;;24.50;71.50;;;;;;5115669;28;20255;-74
2022/08/12 03:02:44;;;;;;;;;;;24.50;71.30;;;;;;5114683;28;19919;-74
2022/08/12 03:05:11;;;;;;;;;;;24.50;71.60;;;;;;5115417;28;19920;-72
2022/08/12 03:07:44;;;;;;;;;;;24.50;71.20;;;;;;5115236;28;19914;-74
2022/08/12 03:10:10;;;;;;;;;;;24.50;71.70;;;;;;5114422;28;19912;-73
2022/08/12 03:12:43;;;;;;;;;;;24.50;71.80;;;;;;5115264;28;19951;-73
2022/08/12 03:15:10;;;;;;;;;;;24.50;71.50;;;;;;5115997;28;20266;-74
2022/08/12 03:17:39;;;;;;;;;;;24.50;71.80;;;;;;5115266;28;19908;-71
2022/08/12 03:20:05;;;;;;;;;;;24.50;71.60;;;;;;5114618;28;20314;-74
2022/08/12 03:22:32;;;;;;;;;;;24.40;71.30;;;;;;5115678;28;19908;-74
2022/08/12 03:25:02;;;;;;;;;;;24.50;71.40;;;;;;5115224;28;19908;-74
2022/08/12 03:27:28;;;;;;;;;;;24.50;72.00;;;;;;5114228;28;19908;-74
2022/08/12 03:29:55;;;;;;;;;;;24.50;71.00;;;;;;5115074;28;19916;-74
2022/08/12 03:32:22;;;;;;;;;;;24.50;71.10;;;;;;5114994;28;19908;-73
2022/08/12 03:34:49;;;;;;;;;;;24.50;71.00;;;;;;5114158;28;19915;-74
2022/08/12 03:37:17;;;;;;;;;;;24.50;71.10;;;;;;5113741;28;19915;-74
2022/08/12 03:39:44;;;;;;;;;;;24.50;71.20;;;;;;5115081;28;20027;-74
2022/08/12 03:42:13;;;;;;;;;;;24.50;71.00;;;;;;5114941;28;20411;-75
2022/08/12 04:01:28;;;;;;;;;;;24.50;71.50;;;;;;5114558;28;20320;-73
2022/08/12 04:03:54;;;;;;;;;;;24.50;71.80;;;;;;5113529;28;19908;-74
2022/08/12 04:06:21;;;;;;;;;;;24.40;71.60;;;;;;5115219;28;19920;-72
2022/08/12 04:08:50;;;;;;;;;;;24.40;71.70;;;;;;5113216;28;20003;-73
2022/08/12 04:14:10;;;;;;;;;;;24.30;72.00;;;;;;5115231;28;19915;-73
2022/08/12 04:16:37;;;;;;;;;;;24.40;72.10;;;;;;5113951;28;19912;-74
2022/08/12 04:19:03;;;;;;;;;;;24.30;72.30;;;;;;5113542;28;19908;-77
2022/08/12 04:21:31;;;;;;;;;;;24.30;72.30;;;;;;5112124;28;19918;-74
2022/08/12 04:23:57;;;;;;;;;;;24.30;72.00;;;;;;5113909;28;19908;-76
2022/08/12 04:26:22;;;;;;;;;;;24.30;72.10;;;;;;5113855;28;19919;-72
2022/08/12 04:28:48;;;;;;;;;;;24.30;72.00;;;;;;5113748;28;20010;-73
2022/08/12 04:31:13;;;;;;;;;;;24.30;72.00;;;;;;5112816;28;20038;-72
2022/08/12 04:33:41;;;;;;;;;;;24.30;72.00;;;;;;5114141;28;19908;-73
2022/08/12 04:36:07;;;;;;;;;;;24.30;72.30;;;;;;5113269;28;19919;-72
2022/08/12 04:38:32;;;;;;;;;;;24.30;72.10;;;;;;5113009;28;19920;-74
2022/08/12 04:40:59;;;;;;;;;;;24.20;72.10;;;;;;5113575;28;19915;-75
2022/08/12 04:43:24;;;;;;;;;;;24.30;72.20;;;;;;5112388;28;20002;-73
2022/08/12 04:45:51;;;;;;;;;;;24.20;72.30;;;;;;5114529;28;19999;-72
2022/08/12 04:48:17;;;;;;;;;;;24.30;72.80;;;;;;5116645;28;19919;-74
2022/08/12 04:50:44;;;;;;;;;;;24.30;72.50;;;;;;5116693;28;19947;-75
2022/08/12 04:53:11;;;;;;;;;;;24.30;72.50;;;;;;5116471;28;19930;-72
2022/08/12 04:55:37;;;;;;;;;;;24.30;72.00;;;;;;5116140;28;19911;-74
2022/08/12 04:58:03;;;;;;;;;;;24.30;72.00;;;;;;5117560;28;19986;-74
2022/08/12 05:00:29;;;;;;;;;;;24.30;72.40;;;;;;5117851;28;19915;-72
2022/08/12 05:02:55;;;;;;;;;;;24.30;72.40;;;;;;5118155;28;20006;-74
2022/08/12 05:05:21;;;;;;;;;;;24.20;72.20;;;;;;5116600;28;20273;-75
2022/08/12 05:07:47;;;;;;;;;;;24.20;72.00;;;;;;5117607;28;19919;-74
2022/08/12 05:10:13;;;;;;;;;;;24.20;72.50;;;;;;5116074;28;19919;-76
2022/08/12 05:12:49;;;;;;;;;;;24.10;72.70;;;;;;5117761;28;19915;-90
2022/08/12 05:15:14;;;;;;;;;;;24.10;72.80;;;;;;5116277;28;20327;-76
2022/08/12 05:17:40;;;;;;;;;;;24.00;72.60;;;;;;5117850;27;19955;-73
2022/08/12 05:20:08;;;;;;;;;;;24.00;72.80;;;;;;5116365;28;19908;-76
2022/08/12 05:22:34;;;;;;;;;;;24.00;72.80;;;;;;5117363;28;20386;-75
2022/08/12 05:25:00;;;;;;;;;;;23.90;72.60;;;;;;5116042;28;19965;-75
2022/08/12 05:27:25;;;;;;;;;;;23.90;73.00;;;;;;5117096;28;19915;-75
2022/08/12 05:29:51;;;;;;;;;;;23.90;73.40;;;;;;5117372;28;20324;-76
2022/08/12 05:32:19;;;;;;;;;;;23.90;73.50;;;;;;5117773;28;19907;-77
2022/08/12 05:34:48;;;;;;;;;;;23.90;73.10;;;;;;5117365;28;20246;-77
2022/08/12 05:37:14;;;;;;;;;;;23.90;73.40;;;;;;5117378;28;20030;-77
2022/08/12 05:39:40;;;;;;;;;;;23.90;73.50;;;;;;5117109;28;20401;-74
2022/08/12 05:42:07;;;;;;;;;;;23.90;73.40;;;;;;5117634;28;19998;-75
2022/08/12 05:44:33;;;;;;;;;;;23.90;73.20;;;;;;5116748;28;19908;-77
2022/08/12 05:46:58;;;;;;;;;;;23.90;73.60;;;;;;5116689;28;19908;-76
2022/08/12 05:49:24;;;;;;;;;;;23.90;72.80;;;;;;5115059;28;19915;-76
2022/08/12 05:51:50;;;;;;;;;;;24.00;73.40;;;;;;5115986;28;19912;-76
2022/08/12 05:54:15;;;;;;;;;;;24.00;73.20;;;;;;5116854;28;20247;-76
2022/08/12 05:56:41;;;;;;;;;;;24.10;73.40;;;;;;5116147;28;19914;-78
2022/08/12 05:59:08;;;;;;;;;;;24.10;73.10;;;;;;5116485;28;19933;-76
2022/08/12 06:01:34;;;;;;;;;;;24.20;73.10;;;;;;5116981;28;19955;-77
2022/08/12 06:03:59;;;;;;;;;;;24.20;72.90;;;;;;5116544;28;19943;-77
2022/08/12 06:06:25;;;;;;;;;;;24.20;72.60;;;;;;5116603;28;19920;-77
2022/08/12 06:08:55;;;;;;;;;;;24.30;72.70;;;;;;5116298;28;20014;-81
2022/08/12 06:11:21;;;;;;;;;;;24.40;72.40;;;;;;5115823;28;20374;-76
2022/08/12 06:13:46;;;;;;;;;;;24.50;72.40;;;;;;5115393;28;19908;-76
2022/08/12 06:16:13;;;;;;;;;;;24.50;72.30;;;;;;5115364;28;19915;-76
2022/08/12 06:18:40;;;;;;;;;;;24.60;72.30;;;;;;5115328;28;19939;-76
2022/08/12 06:21:11;;;;;;;;;;;24.60;71.90;;;;;;5116217;28;20359;-77
2022/08/12 06:23:37;;;;;;;;;;;24.70;71.90;;;;;;5116323;28;19930;-77
2022/08/12 06:26:03;;;;;;;;;;;24.70;71.70;;;;;;5116471;28;20459;-77
2022/08/12 06:28:29;;;;;;;;;;;24.80;71.60;;;;;;5116013;28;19911;-76
2022/08/12 06:30:55;;;;;;;;;;;24.80;71.50;;;;;;5116105;28;19939;-78
2022/08/12 06:33:21;;;;;;;;;;;24.90;71.50;;;;;;5116322;28;19912;-77
2022/08/12 06:35:48;;;;;;;;;;;24.90;71.30;;;;;;5116032;28;19908;-77
2022/08/12 06:38:14;;;;;;;;;;;25.00;71.30;;;;;;5116092;28;19942;-76
2022/08/12 06:43:32;;;;;;;;;;;25.20;71.00;;;;;;5116771;28;19915;-77
2022/08/12 06:45:57;;;;;;;;;;;25.20;70.80;;;;;;5117073;28;19908;-76
2022/08/12 06:48:27;;;;;;;;;;;25.20;70.70;;;;;;5114593;28;19918;-77
2022/08/12 06:50:54;;;;;;;;;;;25.30;71.00;;;;;;5114456;28;20404;-78
2022/08/12 06:53:20;;;;;;;;;;;25.40;70.70;;;;;;5115750;28;19908;-77
2022/08/12 06:55:45;;;;;;;;;;;25.40;70.40;;;;;;5114566;28;19957;-77
2022/08/12 06:58:12;;;;;;;;;;;25.50;70.30;;;;;;5115833;28;19951;-77
2022/08/12 07:00:38;;;;;;;;;;;25.50;70.40;;;;;;5114239;28;20336;-77
2022/08/12 07:03:04;;;;;;;;;;;25.60;70.20;;;;;;5116880;28;19947;-76
2022/08/12 07:05:29;;;;;;;;;;;25.60;70.20;;;;;;5115296;28;19920;-77
2022/08/12 07:07:58;;;;;;;;;;;25.70;69.70;;;;;;5115130;28;19919;-76
2022/08/12 07:10:24;;;;;;;;;;;25.70;69.70;;;;;;5115208;28;19959;-77
2022/08/12 07:12:53;;;;;;;;;;;25.80;69.70;;;;;;5115418;28;19929;-77
2022/08/12 07:15:25;;;;;;;;;;;25.90;69.80;;;;;;5115448;28;19915;-75
2022/08/12 07:18:36;;;;;;;;;;;25.90;69.80;;;;;;5115141;28;19951;-76
2022/08/12 07:20:46;;;;;;;;;;;26.00;69.70;;;;;;5112159;28;19918;-77
2022/08/12 07:23:12;;;;;;;;;;;26.00;69.50;;;;;;5114982;28;19915;-76
2022/08/12 07:25:38;;;;;;;;;;;26.10;69.30;;;;;;5115050;28;19908;-80
2022/08/12 07:28:24;;;;;;;;;;;26.10;69.30;;;;;;5115091;28;20243;-76
2022/08/12 07:30:51;;;;;;;;;;;26.10;69.20;;;;;;5114570;28;19912;-77
2022/08/12 07:33:17;;;;;;;;;;;26.20;69.20;;;;;;5115072;28;20383;-77
2022/08/12 07:35:46;;;;;;;;;;;26.10;69.10;;;;;;5113527;28;19911;-77
2022/08/12 07:38:23;;;;;;;;;;;26.20;69.20;;;;;;5113698;28;19961;-74
2022/08/12 07:41:09;;;;;;;;;;;26.20;69.20;;;;;;5115126;28;19908;-77
2022/08/12 07:43:36;;;;;;;;;;;26.30;69.30;;;;;;5115004;28;19908;-77
2022/08/12 07:46:04;;;;;;;;;;;26.30;68.90;;;;;;5114658;28;19908;-77
2022/08/12 07:48:40;;;;;;;;;;;26.30;68.80;;;;;;5114247;28;20414;-76
2022/08/12 07:51:07;;;;;;;;;;;26.40;69.00;;;;;;5115027;28;19912;-77
2022/08/12 07:53:34;;;;;;;;;;;26.40;68.80;;;;;;5114979;28;19908;-75
2022/08/12 07:55:59;;;;;;;;;;;26.40;68.60;;;;;;5114907;28;19915;-77
2022/08/12 07:58:25;;;;;;;;;;;26.40;68.50;;;;;;5113261;28;20277;-77
2022/08/12 08:00:53;;;;;;;;;;;26.50;68.70;;;;;;5114533;28;19908;-76
2022/08/12 08:03:19;;;;;;;;;;;26.60;68.80;;;;;;5113063;28;19951;-77
2022/08/12 08:05:48;;;;;;;;;;;26.60;68.70;;;;;;5114483;28;19971;-76
2022/08/12 08:08:14;;;;;;;;;;;26.70;68.70;;;;;;5114489;28;19968;-77
2022/08/12 08:10:40;;;;;;;;;;;26.80;68.70;;;;;;5114420;28;19912;-76
2022/08/12 08:13:10;;;;;;;;;;;26.90;68.30;;;;;;5114879;28;19908;-76
2022/08/12 08:15:38;;;;;;;;;;;26.90;68.10;;;;;;5113453;28;19908;-76
2022/08/12 08:18:05;;;;;;;;;;;26.90;68.20;;;;;;5114292;28;19908;-76
2022/08/12 08:20:33;;;;;;;;;;;27.00;67.90;;;;;;5115588;28;20016;-76
2022/08/12 08:23:00;;;;;;;;;;;27.10;67.80;;;;;;5118494;28;19908;-76
2022/08/12 08:25:32;;;;;;;;;;;27.00;67.60;;;;;;5118974;28;19907;-76
2022/08/12 08:27:58;;;;;;;;;;;27.10;67.80;;;;;;5118519;28;19912;-76
2022/08/12 08:30:24;;;;;;;;;;;27.10;67.80;;;;;;5119753;28;19911;-76
2022/08/12 08:32:50;;;;;;;;;;;27.10;67.90;;;;;;5118543;28;19919;-77
2022/08/12 08:35:15;;;;;;;;;;;27.10;67.90;;;;;;5118444;28;19912;-76
2022/08/12 08:37:45;;;;;;;;;;;27.10;68.00;;;;;;5118292;28;19957;-76
2022/08/12 08:42:55;;;;;;;;;;;27.20;67.50;;;;;;5118424;28;20394;-76
2022/08/12 08:45:20;;;;;;;;;;;27.30;67.40;;;;;;5118392;28;19908;-77
2022/08/12 08:47:47;;;;;;;;;;;27.40;67.30;;;;;;5118560;28;20330;-76
2022/08/12 08:50:14;;;;;;;;;;;27.40;66.80;;;;;;5118355;28;20277;-77
2022/08/12 08:52:40;;;;;;;;;;;27.40;66.90;;;;;;5118166;28;19991;-77
2022/08/12 08:55:05;;;;;;;;;;;27.50;66.30;;;;;;5118137;28;20313;-77
2022/08/12 08:57:31;;;;;;;;;;;27.50;66.90;;;;;;5117691;28;20358;-76
2022/08/12 08:59:59;;;;;;;;;;;27.50;66.80;;;;;;5118235;28;19998;-76
2022/08/12 09:02:24;;;;;;;;;;;27.50;67.00;;;;;;5118098;28;19908;-77
2022/08/12 09:04:50;;;;;;;;;;;27.50;67.00;;;;;;5117750;28;19943;-77
2022/08/12 09:07:17;;;;;;;;;;;27.50;66.80;;;;;;5118046;28;20373;-77
2022/08/12 09:09:42;;;;;;;;;;;27.50;66.90;;;;;;5118430;28;19911;-77
2022/08/12 09:14:53;;;;;;;;;;;27.60;66.80;;;;;;5117673;28;19915;-76
2022/08/12 09:17:21;;;;;;;;;;;27.70;67.20;;;;;;5117542;28;19908;-77
2022/08/12 09:19:47;;;;;;;;;;;27.70;67.00;;;;;;5117517;28;19908;-77
2022/08/12 09:22:12;;;;;;;;;;;27.70;67.00;;;;;;5117686;28;19947;-76
2022/08/12 09:24:38;;;;;;;;;;;27.70;66.70;;;;;;5118059;28;19915;-77
2022/08/12 09:27:05;;;;;;;;;;;27.70;66.60;;;;;;5117504;28;19911;-75
2022/08/12 09:29:32;;;;;;;;;;;27.70;66.40;;;;;;5117278;28;19912;-77
2022/08/12 09:31:59;;;;;;;;;;;27.40;66.50;;;;;;5115867;28;19916;-77
2022/08/12 09:34:26;;;;;;;;;;;27.70;66.60;;;;;;5117200;28;19976;-75
2022/08/12 09:36:52;;;;;;;;;;;27.70;66.70;;;;;;5117109;28;19923;-77
2022/08/12 09:39:17;;;;;;;;;;;27.80;66.70;;;;;;5116845;28;19907;-77
2022/08/12 09:41:43;;;;;;;;;;;27.80;66.60;;;;;;5117186;28;19927;-76
2022/08/12 09:46:53;;;;;;;;;;;27.80;66.60;;;;;;5117173;28;19957;-76
2022/08/12 09:49:20;;;;;;;;;;;27.90;66.50;;;;;;5116541;28;19916;-76
2022/08/12 09:51:46;;;;;;;;;;;27.90;66.60;;;;;;5117453;28;20330;-77
2022/08/12 09:54:13;;;;;;;;;;;28.00;66.80;;;;;;5117320;28;20010;-76
2022/08/12 09:56:39;;;;;;;;;;;28.00;66.70;;;;;;5116911;28;20463;-76
2022/08/12 09:59:08;;;;;;;;;;;28.10;66.30;;;;;;5116882;28;20379;-76
2022/08/12 10:01:37;;;;;;;;;;;28.10;66.20;;;;;;5115774;28;19912;-76
2022/08/12 10:04:04;;;;;;;;;;;28.10;65.30;;;;;;5116505;28;20346;-76
2022/08/12 10:06:30;;;;;;;;;;;28.10;65.40;;;;;;5116833;28;19927;-77
2022/08/12 10:08:55;;;;;;;;;;;28.00;65.80;;;;;;5116467;28;19912;-78
2022/08/12 10:14:05;;;;;;;;;;;27.90;66.00;;;;;;5116764;28;20018;-77
2022/08/12 10:16:33;;;;;;;;;;;27.90;65.90;;;;;;5116765;28;19907;-77
2022/08/12 10:19:00;;;;;;;;;;;27.90;65.90;;;;;;5116473;28;20366;-73
2022/08/12 10:21:30;;;;;;;;;;;27.90;65.30;;;;;;5116565;28;20257;-77
2022/08/12 10:23:56;;;;;;;;;;;28.00;65.90;;;;;;5115998;28;19915;-77
2022/08/12 10:31:50;;;;;;;;;;;28.20;65.50;;;;;;5116365;28;20014;-77
2022/08/12 10:34:16;;;;;;;;;;;28.30;65.30;;;;;;5116876;28;19935;-77
2022/08/12 10:36:43;;;;;;;;;;;28.30;65.30;;;;;;5115921;28;19916;-76
2022/08/12 10:39:12;;;;;;;;;;;28.40;64.80;;;;;;5115993;28;19915;-77
2022/08/12 10:44:22;;;;;;;;;;;28.50;64.80;;;;;;5115508;28;19961;-76
2022/08/12 10:46:50;;;;;;;;;;;28.40;64.70;;;;;;5115855;28;19908;-76
2022/08/12 10:49:16;;;;;;;;;;;28.40;64.20;;;;;;5115874;28;20242;-75
2022/08/12 10:51:42;;;;;;;;;;;28.30;64.20;;;;;;5115629;28;19912;-76
2022/08/12 10:54:11;;;;;;;;;;;28.30;64.10;;;;;;5114132;28;20342;-76
2022/08/12 10:56:39;;;;;;;;;;;28.30;64.20;;;;;;5115631;28;19908;-75
2022/08/12 10:59:05;;;;;;;;;;;28.30;64.10;;;;;;5115655;28;19968;-77
2022/08/12 11:01:32;;;;;;;;;;;28.30;64.10;;;;;;5114273;28;19908;-76
2022/08/12 11:04:00;;;;;;;;;;;28.30;64.00;;;;;;5115585;28;20370;-77
2022/08/12 11:06:26;;;;;;;;;;;28.30;63.70;;;;;;5115487;28;20399;-76
2022/08/12 11:08:55;;;;;;;;;;;28.30;63.30;;;;;;5115192;28;19912;-76
2022/08/12 11:11:21;;;;;;;;;;;28.30;63.60;;;;;;5115406;28;19911;-78
2022/08/12 11:13:46;;;;;;;;;;;28.40;63.80;;;;;;5115272;28;20002;-77
2022/08/12 11:16:12;;;;;;;;;;;28.30;63.70;;;;;;5114187;28;19930;-77
2022/08/12 11:18:41;;;;;;;;;;;28.40;63.60;;;;;;5115252;28;20374;-78
2022/08/12 11:21:06;;;;;;;;;;;28.40;63.70;;;;;;5115410;28;19908;-77
2022/08/12 11:23:32;;;;;;;;;;;28.30;63.70;;;;;;5115071;28;19953;-75
2022/08/12 11:25:57;;;;;;;;;;;28.30;63.90;;;;;;5115263;28;19908;-76
2022/08/12 11:28:23;;;;;;;;;;;28.20;63.80;;;;;;5115043;28;19919;-76
2022/08/12 11:30:48;;;;;;;;;;;28.20;63.90;;;;;;5115050;28;19919;-76
2022/08/12 11:33:14;;;;;;;;;;;28.10;64.00;;;;;;5115326;28;19908;-77
2022/08/12 11:35:42;;;;;;;;;;;28.10;64.20;;;;;;5116091;28;19959;-76
2022/08/12 11:38:08;;;;;;;;;;;27.90;64.00;;;;;;5114197;28;20319;-76
2022/08/12 11:40:34;;;;;;;;;;;27.90;64.20;;;;;;5114883;28;19912;-76
2022/08/12 11:43:00;;;;;;;;;;;27.80;64.20;;;;;;5114373;28;19953;-76
2022/08/12 11:45:26;;;;;;;;;;;27.80;64.30;;;;;;5115532;28;20373;-76
2022/08/12 11:47:53;;;;;;;;;;;27.70;64.00;;;;;;5114652;28;20311;-79
2022/08/12 11:50:19;;;;;;;;;;;27.70;63.20;;;;;;5114507;28;20358;-76
2022/08/12 11:52:45;;;;;;;;;;;27.70;63.60;;;;;;5114398;28;19908;-76
2022/08/12 11:55:11;;;;;;;;;;;27.60;63.10;;;;;;5112858;28;20327;-77
2022/08/12 11:57:47;;;;;;;;;;;27.60;63.10;;;;;;5115119;28;19911;-78
2022/08/12 12:00:12;;;;;;;;;;;27.50;62.60;;;;;;5115910;28;19907;-78
2022/08/12 12:02:38;;;;;;;;;;;27.50;63.00;;;;;;5114335;28;19915;-80
2022/08/12 12:05:04;;;;;;;;;;;27.50;62.50;;;;;;5114149;28;19969;-77
2022/08/12 12:07:29;;;;;;;;;;;27.40;61.00;;;;;;5114472;28;20331;-76
2022/08/12 12:09:56;;;;;;;;;;;27.50;62.30;;;;;;5114520;28;19911;-76
2022/08/12 12:12:22;;;;;;;;;;;27.40;62.50;;;;;;5114112;28;19912;-77
2022/08/12 12:14:47;;;;;;;;;;;27.40;62.10;;;;;;5114367;28;19908;-77
2022/08/12 12:17:13;;;;;;;;;;;27.40;62.80;;;;;;5114436;28;19912;-77
2022/08/12 12:19:38;;;;;;;;;;;27.30;62.70;;;;;;5114457;28;19947;-76
2022/08/12 12:22:04;;;;;;;;;;;27.30;63.10;;;;;;5114623;28;19908;-76
2022/08/12 12:24:29;;;;;;;;;;;27.30;63.20;;;;;;5113045;28;20036;-77
2022/08/12 12:26:55;;;;;;;;;;;27.30;63.30;;;;;;5114315;28;19915;-77
2022/08/12 12:29:20;;;;;;;;;;;27.20;63.30;;;;;;5113106;28;19919;-77
2022/08/12 12:31:46;;;;;;;;;;;27.20;63.60;;;;;;5114447;28;19923;-77
2022/08/12 12:34:11;;;;;;;;;;;27.10;63.60;;;;;;5114219;28;19908;-77
2022/08/12 12:36:37;;;;;;;;;;;27.20;64.00;;;;;;5113965;28;19916;-73
2022/08/12 12:39:03;;;;;;;;;;;27.10;64.10;;;;;;5114335;28;20380;-77
2022/08/12 12:41:28;;;;;;;;;;;27.10;64.20;;;;;;5113070;28;19908;-76
2022/08/12 12:43:54;;;;;;;;;;;27.10;64.40;;;;;;5114232;28;20365;-76
2022/08/12 12:46:19;;;;;;;;;;;27.10;64.60;;;;;;5114247;28;20274;-77
2022/08/12 12:48:45;;;;;;;;;;;27.00;64.70;;;;;;5113717;28;20311;-78
2022/08/12 12:51:16;;;;;;;;;;;27.00;64.80;;;;;;5114715;28;19934;-77
2022/08/12 12:53:43;;;;;;;;;;;27.00;65.20;;;;;;5115541;28;19916;-77
2022/08/12 12:56:24;;;;;;;;;;;26.90;65.10;;;;;;5112921;28;19908;-77
2022/08/12 12:58:50;;;;;;;;;;;26.90;65.30;;;;;;5112832;28;19996;-78
2022/08/12 13:01:17;;;;;;;;;;;26.90;65.40;;;;;;5112911;28;20380;-77
2022/08/12 13:03:44;;;;;;;;;;;26.90;65.70;;;;;;5114105;28;19919;-78
2022/08/12 13:06:11;;;;;;;;;;;26.90;65.80;;;;;;5113533;28;19920;-75
2022/08/12 13:08:37;;;;;;;;;;;26.90;65.90;;;;;;5117517;28;19912;-76
2022/08/12 13:11:04;;;;;;;;;;;26.90;66.00;;;;;;5117663;28;19912;-78
2022/08/12 13:13:31;;;;;;;;;;;26.90;65.90;;;;;;5117455;28;20418;-76
2022/08/12 13:15:58;;;;;;;;;;;26.90;66.00;;;;;;5118348;28;19962;-77
2022/08/12 13:18:24;;;;;;;;;;;26.90;66.10;;;;;;5116335;28;19912;-77
2022/08/12 13:20:50;;;;;;;;;;;26.90;66.10;;;;;;5117941;28;19912;-77
2022/08/12 13:23:16;;;;;;;;;;;26.90;66.20;;;;;;5117196;28;20396;-77
2022/08/12 13:25:42;;;;;;;;;;;26.90;66.10;;;;;;5116575;28;19908;-77
2022/08/12 13:28:20;;;;;;;;;;;26.90;66.50;;;;;;5117097;28;20011;-76
2022/08/12 13:30:45;;;;;;;;;;;26.80;66.80;;;;;;5116453;28;19943;-78
2022/08/12 13:33:13;;;;;;;;;;;26.80;66.90;;;;;;5117412;28;19977;-76
2022/08/12 13:35:39;;;;;;;;;;;26.80;66.90;;;;;;5115817;28;20003;-77
2022/08/12 13:38:09;;;;;;;;;;;26.80;66.80;;;;;;5117512;28;19951;-77
2022/08/12 13:40:35;;;;;;;;;;;26.80;67.10;;;;;;5115500;28;19908;-77
2022/08/12 13:43:05;;;;;;;;;;;26.80;67.80;;;;;;5116778;28;19965;-75
2022/08/12 13:45:31;;;;;;;;;;;26.80;67.60;;;;;;5118473;28;19907;-77
2022/08/12 13:47:57;;;;;;;;;;;26.80;68.10;;;;;;5117119;28;19908;-77
2022/08/12 13:50:32;;;;;;;;;;;26.70;68.30;;;;;;5116932;28;19912;-76
2022/08/12 13:53:03;;;;;;;;;;;26.70;69.50;;;;;;5115550;28;19974;-77
2022/08/12 13:55:28;;;;;;;;;;;26.70;69.10;;;;;;5098163;28;19912;-78
2022/08/12 13:57:54;;;;;;;;;;;26.70;68.60;;;;;;5116756;28;19915;-76
2022/08/12 14:00:20;;;;;;;;;;;26.70;68.80;;;;;;5116979;28;20262;-77
2022/08/12 14:02:46;;;;;;;;;;;26.80;68.80;;;;;;5117463;28;19911;-77
2022/08/12 14:05:13;;;;;;;;;;;26.90;68.20;;;;;;5116979;28;19927;-78
2022/08/12 14:07:54;;;;;;;;;;;26.90;67.90;;;;;;5116830;28;19957;-77
2022/08/12 14:10:35;;;;;;;;;;;26.90;67.40;;;;;;5115952;28;21456;-76
2022/08/12 14:13:01;;;;;;;;;;;27.00;68.00;;;;;;5115266;28;19915;-77
2022/08/12 14:15:26;;;;;;;;;;;27.10;67.40;;;;;;5115206;28;20323;-80
2022/08/12 14:17:52;;;;;;;;;;;27.20;67.30;;;;;;5114361;28;19908;-75
2022/08/12 14:20:18;;;;;;;;;;;27.40;67.60;;;;;;5116191;28;19961;-77
2022/08/12 14:22:43;;;;;;;;;;;27.60;67.50;;;;;;5115194;28;20361;-76
2022/08/12 14:25:09;;;;;;;;;;;28.00;66.50;;;;;;5116214;28;19914;-76
2022/08/12 14:27:36;;;;;;;;;;;28.40;67.00;;;;;;5115717;28;20379;-77
2022/08/12 14:30:04;;;;;;;;;;;28.80;66.30;;;;;;5115883;28;19911;-77
2022/08/12 14:32:33;;;;;;;;;;;29.10;64.60;;;;;;5116334;28;19951;-77
2022/08/12 14:34:58;;;;;;;;;;;29.30;65.00;;;;;;5116312;28;19908;-76
2022/08/12 14:37:24;;;;;;;;;;;29.60;65.00;;;;;;5115142;28;19916;-77
2022/08/12 14:39:50;;;;;;;;;;;29.90;63.90;;;;;;5116254;28;20376;-76
2022/08/12 14:42:16;;;;;;;;;;;30.10;63.30;;;;;;5116590;28;19923;-78
2022/08/12 14:44:43;;;;;;;;;;;30.10;63.40;;;;;;5114558;28;19915;-77
2022/08/12 14:47:08;;;;;;;;;;;30.00;63.00;;;;;;5116007;28;19960;-77
2022/08/12 14:49:35;;;;;;;;;;;30.00;63.10;;;;;;5113936;28;19915;-78
2022/08/12 14:52:00;;;;;;;;;;;30.20;63.60;;;;;;5114081;28;19915;-75
2022/08/12 14:54:27;;;;;;;;;;;30.50;64.20;;;;;;5115347;28;20362;-76
2022/08/12 14:56:52;;;;;;;;;;;30.90;64.40;;;;;;5114328;28;19961;-76
2022/08/12 15:02:03;;;;;;;;;;;31.40;61.70;;;;;;5115145;28;19914;-75
2022/08/12 15:04:29;;;;;;;;;;;31.20;60.40;;;;;;5113938;28;19908;-76
2022/08/12 15:06:55;;;;;;;;;;;31.00;61.10;;;;;;5115348;28;19915;-77
2022/08/12 15:09:20;;;;;;;;;;;30.80;61.10;;;;;;5115271;28;19973;-76
2022/08/12 15:11:47;;;;;;;;;;;30.50;61.80;;;;;;5115216;28;19962;-77
2022/08/12 15:14:12;;;;;;;;;;;30.30;61.90;;;;;;5114168;28;19908;-76
2022/08/12 15:16:38;;;;;;;;;;;30.00;62.40;;;;;;5114755;28;19911;-78
2022/08/12 15:19:03;;;;;;;;;;;29.80;62.60;;;;;;5114947;28;19908;-77
2022/08/12 15:21:29;;;;;;;;;;;29.60;63.10;;;;;;5115699;28;19907;-76
2022/08/12 15:23:55;;;;;;;;;;;29.30;63.40;;;;;;5114652;28;19922;-77
2022/08/12 15:26:20;;;;;;;;;;;29.10;64.00;;;;;;5114902;28;20361;-75
2022/08/12 15:28:46;;;;;;;;;;;28.90;64.40;;;;;;5114348;28;19911;-76
2022/08/12 15:31:14;;;;;;;;;;;28.70;64.80;;;;;;5114728;28;19916;-76
2022/08/12 15:33:41;;;;;;;;;;;28.50;65.50;;;;;;5115752;28;19915;-76
2022/08/12 15:36:07;;;;;;;;;;;28.40;65.10;;;;;;5114684;28;19914;-76
2022/08/12 15:38:34;;;;;;;;;;;28.20;65.20;;;;;;5114764;28;20038;-76
2022/08/12 15:40:59;;;;;;;;;;;28.20;65.60;;;;;;5114467;28;20361;-77
2022/08/12 15:43:28;;;;;;;;;;;28.00;66.00;;;;;;5119043;28;19915;-77
2022/08/12 15:45:56;;;;;;;;;;;27.90;65.90;;;;;;5114444;28;19998;-77
2022/08/12 15:48:21;;;;;;;;;;;27.80;66.90;;;;;;5114292;28;19912;-76
2022/08/12 15:50:47;;;;;;;;;;;27.70;67.20;;;;;;5115123;28;19911;-77
2022/08/12 15:54:03;;;;;;;;;;;27.60;67.40;;;;;;5114566;28;20345;-77
2022/08/12 15:56:05;;;;;;;;;;;27.60;67.60;;;;;;5113909;27;20289;-76
2022/08/12 15:58:30;;;;;;;;;;;27.50;67.40;;;;;;5112799;28;20002;-77
2022/08/12 16:00:57;;;;;;;;;;;27.40;67.60;;;;;;5114224;28;19994;-76